sensor_id;sensor_type;location;lat;lon;timestamp;P1;durP1;ratioP1;P2;durP2;ratioP2
16354;SDS011;8287;51.644;8.494;2023-03-01T00:02:21;12.52;;;8.85;;
16354;SDS011;8287;51.644;8.494;2023-03-01T00:04:48;13.85;;;8.18;;
16354;SDS011;8287;51.644;8.494;2023-03-01T00:07:15;11.40;;;7.57;;
16354;SDS011;8287;51.644;8.494;2023-03-01T00:09:41;14.77;;;8.52;;
16354;SDS011;8287;51.644;8.494;2023-03-01T00:12:15;11.25;;;8.25;;
16354;SDS011;8287;51.644;8.494;2023-03-01T00:14:41;11.32;;;7.03;;
16354;SDS011;8287;51.644;8.494;2023-03-01T00:17:08;13.38;;;7.25;;
16354;SDS011;8287;51.644;8.494;2023-03-01T00:19:35;11.10;;;7.53;;
16354;SDS011;8287;51.644;8.494;2023-03-01T00:22:02;11.05;;;7.82;;
16354;SDS011;8287;51.644;8.494;2023-03-01T00:24:28;10.02;;;7.93;;
16354;SDS011;8287;51.644;8.494;2023-03-01T00:26:55;13.32;;;7.35;;
16354;SDS011;8287;51.644;8.494;2023-03-01T00:29:23;12.48;;;7.50;;
16354;SDS011;8287;51.644;8.494;2023-03-01T00:31:50;9.18;;;7.18;;
16354;SDS011;8287;51.644;8.494;2023-03-01T00:34:17;11.30;;;7.07;;
16354;SDS011;8287;51.644;8.494;2023-03-01T00:36:43;10.10;;;7.78;;
16354;SDS011;8287;51.644;8.494;2023-03-01T00:39:11;11.15;;;7.10;;
16354;SDS011;8287;51.644;8.494;2023-03-01T00:41:39;12.07;;;7.72;;
16354;SDS011;8287;51.644;8.494;2023-03-01T00:44:06;9.43;;;7.25;;
16354;SDS011;8287;51.644;8.494;2023-03-01T00:46:35;12.73;;;7.60;;
16354;SDS011;8287;51.644;8.494;2023-03-01T00:49:03;11.88;;;7.25;;
16354;SDS011;8287;51.644;8.494;2023-03-01T00:51:31;13.88;;;7.10;;
16354;SDS011;8287;51.644;8.494;2023-03-01T00:53:59;10.85;;;7.10;;
16354;SDS011;8287;51.644;8.494;2023-03-01T00:56:33;9.40;;;6.55;;
16354;SDS011;8287;51.644;8.494;2023-03-01T00:59:06;9.88;;;6.60;;
16354;SDS011;8287;51.644;8.494;2023-03-01T01:01:37;10.02;;;6.90;;
16354;SDS011;8287;51.644;8.494;2023-03-01T01:04:05;8.43;;;6.63;;
16354;SDS011;8287;51.644;8.494;2023-03-01T01:06:33;9.13;;;6.55;;
16354;SDS011;8287;51.644;8.494;2023-03-01T01:09:01;12.13;;;7.43;;
16354;SDS011;8287;51.644;8.494;2023-03-01T01:11:29;13.05;;;6.97;;
16354;SDS011;8287;51.644;8.494;2023-03-01T01:13:57;9.90;;;6.97;;
16354;SDS011;8287;51.644;8.494;2023-03-01T01:16:24;12.15;;;7.80;;
16354;SDS011;8287;51.644;8.494;2023-03-01T01:18:54;12.43;;;7.60;;
16354;SDS011;8287;51.644;8.494;2023-03-01T01:21:22;9.90;;;6.50;;
16354;SDS011;8287;51.644;8.494;2023-03-01T01:23:50;11.48;;;6.80;;
16354;SDS011;8287;51.644;8.494;2023-03-01T01:26:17;9.98;;;6.95;;
16354;SDS011;8287;51.644;8.494;2023-03-01T01:28:46;10.43;;;6.53;;
16354;SDS011;8287;51.644;8.494;2023-03-01T01:31:13;10.55;;;6.40;;
16354;SDS011;8287;51.644;8.494;2023-03-01T01:33:40;12.43;;;6.72;;
16354;SDS011;8287;51.644;8.494;2023-03-01T01:36:08;10.48;;;6.60;;
16354;SDS011;8287;51.644;8.494;2023-03-01T01:38:36;13.05;;;7.60;;
16354;SDS011;8287;51.644;8.494;2023-03-01T01:41:04;11.38;;;7.35;;
16354;SDS011;8287;51.644;8.494;2023-03-01T01:43:34;9.15;;;6.85;;
16354;SDS011;8287;51.644;8.494;2023-03-01T01:46:03;10.38;;;7.65;;
16354;SDS011;8287;51.644;8.494;2023-03-01T01:48:34;16.88;;;8.90;;
16354;SDS011;8287;51.644;8.494;2023-03-01T01:51:06;11.35;;;7.60;;
16354;SDS011;8287;51.644;8.494;2023-03-01T01:53:37;13.57;;;7.43;;
16354;SDS011;8287;51.644;8.494;2023-03-01T01:56:06;11.07;;;6.63;;
16354;SDS011;8287;51.644;8.494;2023-03-01T01:58:35;9.80;;;7.32;;
16354;SDS011;8287;51.644;8.494;2023-03-01T02:01:03;11.18;;;6.68;;
16354;SDS011;8287;51.644;8.494;2023-03-01T02:03:31;8.82;;;6.32;;
16354;SDS011;8287;51.644;8.494;2023-03-01T02:06:03;11.95;;;7.72;;
16354;SDS011;8287;51.644;8.494;2023-03-01T02:08:35;10.90;;;7.78;;
16354;SDS011;8287;51.644;8.494;2023-03-01T02:11:04;8.18;;;6.30;;
16354;SDS011;8287;51.644;8.494;2023-03-01T02:13:32;12.07;;;7.30;;
16354;SDS011;8287;51.644;8.494;2023-03-01T02:16:02;9.77;;;6.85;;
16354;SDS011;8287;51.644;8.494;2023-03-01T02:18:29;9.40;;;7.57;;
16354;SDS011;8287;51.644;8.494;2023-03-01T02:21:01;11.07;;;7.38;;
16354;SDS011;8287;51.644;8.494;2023-03-01T02:23:37;8.60;;;6.35;;
16354;SDS011;8287;51.644;8.494;2023-03-01T02:26:07;11.10;;;7.40;;
16354;SDS011;8287;51.644;8.494;2023-03-01T02:28:40;9.43;;;7.03;;
16354;SDS011;8287;51.644;8.494;2023-03-01T02:31:09;11.57;;;6.75;;
16354;SDS011;8287;51.644;8.494;2023-03-01T02:33:57;11.00;;;6.82;;
16354;SDS011;8287;51.644;8.494;2023-03-01T02:36:25;11.35;;;7.55;;
16354;SDS011;8287;51.644;8.494;2023-03-01T02:38:57;10.10;;;6.63;;
16354;SDS011;8287;51.644;8.494;2023-03-01T02:41:26;12.13;;;8.23;;
16354;SDS011;8287;51.644;8.494;2023-03-01T02:43:58;12.30;;;7.38;;
16354;SDS011;8287;51.644;8.494;2023-03-01T02:46:25;10.57;;;7.22;;
16354;SDS011;8287;51.644;8.494;2023-03-01T02:48:52;11.30;;;7.57;;
16354;SDS011;8287;51.644;8.494;2023-03-01T02:51:30;9.57;;;6.55;;
16354;SDS011;8287;51.644;8.494;2023-03-01T02:54:07;10.45;;;7.18;;
16354;SDS011;8287;51.644;8.494;2023-03-01T02:56:39;11.73;;;6.88;;
16354;SDS011;8287;51.644;8.494;2023-03-01T02:59:08;9.80;;;6.60;;
16354;SDS011;8287;51.644;8.494;2023-03-01T03:01:36;8.18;;;6.00;;
16354;SDS011;8287;51.644;8.494;2023-03-01T03:04:04;11.43;;;6.63;;
16354;SDS011;8287;51.644;8.494;2023-03-01T03:06:31;13.93;;;7.35;;
16354;SDS011;8287;51.644;8.494;2023-03-01T03:08:58;8.95;;;6.35;;
16354;SDS011;8287;51.644;8.494;2023-03-01T03:11:25;8.98;;;6.25;;
16354;SDS011;8287;51.644;8.494;2023-03-01T03:13:52;10.30;;;6.28;;
16354;SDS011;8287;51.644;8.494;2023-03-01T03:16:20;10.68;;;7.28;;
16354;SDS011;8287;51.644;8.494;2023-03-01T03:18:47;11.05;;;7.43;;
16354;SDS011;8287;51.644;8.494;2023-03-01T03:21:14;11.68;;;7.68;;
16354;SDS011;8287;51.644;8.494;2023-03-01T03:23:42;10.32;;;6.72;;
16354;SDS011;8287;51.644;8.494;2023-03-01T03:26:08;12.30;;;7.65;;
16354;SDS011;8287;51.644;8.494;2023-03-01T03:28:38;8.70;;;6.75;;
16354;SDS011;8287;51.644;8.494;2023-03-01T03:31:05;10.48;;;7.40;;
16354;SDS011;8287;51.644;8.494;2023-03-01T03:33:34;11.52;;;6.88;;
16354;SDS011;8287;51.644;8.494;2023-03-01T03:36:00;14.07;;;7.50;;
16354;SDS011;8287;51.644;8.494;2023-03-01T03:38:27;8.70;;;6.60;;
16354;SDS011;8287;51.644;8.494;2023-03-01T03:40:59;9.75;;;6.47;;
16354;SDS011;8287;51.644;8.494;2023-03-01T03:43:28;16.75;;;8.15;;
16354;SDS011;8287;51.644;8.494;2023-03-01T03:45:57;10.30;;;7.25;;
16354;SDS011;8287;51.644;8.494;2023-03-01T03:48:24;10.45;;;7.00;;
16354;SDS011;8287;51.644;8.494;2023-03-01T03:50:53;14.93;;;7.32;;
16354;SDS011;8287;51.644;8.494;2023-03-01T03:53:21;10.80;;;7.65;;
16354;SDS011;8287;51.644;8.494;2023-03-01T03:55:49;12.95;;;8.20;;
16354;SDS011;8287;51.644;8.494;2023-03-01T03:58:17;11.00;;;8.02;;
16354;SDS011;8287;51.644;8.494;2023-03-01T04:00:45;12.38;;;8.10;;
16354;SDS011;8287;51.644;8.494;2023-03-01T04:03:14;11.65;;;7.70;;
16354;SDS011;8287;51.644;8.494;2023-03-01T04:05:43;13.90;;;7.75;;
16354;SDS011;8287;51.644;8.494;2023-03-01T04:08:12;12.60;;;8.15;;
16354;SDS011;8287;51.644;8.494;2023-03-01T04:10:40;8.77;;;6.65;;
16354;SDS011;8287;51.644;8.494;2023-03-01T04:13:10;11.65;;;7.75;;
16354;SDS011;8287;51.644;8.494;2023-03-01T04:15:38;10.85;;;7.70;;
16354;SDS011;8287;51.644;8.494;2023-03-01T04:18:05;12.25;;;7.47;;
16354;SDS011;8287;51.644;8.494;2023-03-01T04:20:34;11.75;;;7.28;;
16354;SDS011;8287;51.644;8.494;2023-03-01T04:23:02;10.52;;;6.95;;
16354;SDS011;8287;51.644;8.494;2023-03-01T04:25:38;12.38;;;7.57;;
16354;SDS011;8287;51.644;8.494;2023-03-01T04:28:05;11.20;;;7.55;;
16354;SDS011;8287;51.644;8.494;2023-03-01T04:30:32;10.93;;;8.40;;
16354;SDS011;8287;51.644;8.494;2023-03-01T04:33:01;10.32;;;7.18;;
16354;SDS011;8287;51.644;8.494;2023-03-01T04:35:29;10.98;;;7.20;;
16354;SDS011;8287;51.644;8.494;2023-03-01T04:37:56;12.02;;;7.30;;
16354;SDS011;8287;51.644;8.494;2023-03-01T04:40:22;10.55;;;7.32;;
16354;SDS011;8287;51.644;8.494;2023-03-01T04:42:50;11.85;;;7.65;;
16354;SDS011;8287;51.644;8.494;2023-03-01T04:45:17;13.18;;;7.88;;
16354;SDS011;8287;51.644;8.494;2023-03-01T04:47:45;9.60;;;6.93;;
16354;SDS011;8287;51.644;8.494;2023-03-01T04:50:13;9.25;;;6.93;;
16354;SDS011;8287;51.644;8.494;2023-03-01T04:52:42;14.70;;;8.00;;
16354;SDS011;8287;51.644;8.494;2023-03-01T04:55:09;11.77;;;7.60;;
16354;SDS011;8287;51.644;8.494;2023-03-01T04:57:37;12.25;;;7.88;;
16354;SDS011;8287;51.644;8.494;2023-03-01T05:00:06;12.20;;;7.35;;
16354;SDS011;8287;51.644;8.494;2023-03-01T05:02:45;12.15;;;7.63;;
16354;SDS011;8287;51.644;8.494;2023-03-01T05:05:13;11.95;;;6.60;;
16354;SDS011;8287;51.644;8.494;2023-03-01T05:07:40;10.23;;;7.10;;
16354;SDS011;8287;51.644;8.494;2023-03-01T05:10:07;11.93;;;7.72;;
16354;SDS011;8287;51.644;8.494;2023-03-01T05:12:34;11.52;;;8.05;;
16354;SDS011;8287;51.644;8.494;2023-03-01T05:15:02;13.65;;;9.52;;
16354;SDS011;8287;51.644;8.494;2023-03-01T05:17:33;12.23;;;8.20;;
16354;SDS011;8287;51.644;8.494;2023-03-01T05:20:00;14.40;;;8.40;;
16354;SDS011;8287;51.644;8.494;2023-03-01T05:22:29;12.18;;;7.55;;
16354;SDS011;8287;51.644;8.494;2023-03-01T05:24:55;11.38;;;7.72;;
16354;SDS011;8287;51.644;8.494;2023-03-01T05:27:22;11.02;;;7.93;;
16354;SDS011;8287;51.644;8.494;2023-03-01T05:29:48;11.32;;;7.78;;
16354;SDS011;8287;51.644;8.494;2023-03-01T05:32:15;12.02;;;8.52;;
16354;SDS011;8287;51.644;8.494;2023-03-01T05:34:43;9.27;;;6.95;;
16354;SDS011;8287;51.644;8.494;2023-03-01T05:37:11;16.40;;;7.65;;
16354;SDS011;8287;51.644;8.494;2023-03-01T05:39:38;9.75;;;6.90;;
16354;SDS011;8287;51.644;8.494;2023-03-01T05:42:09;11.20;;;6.78;;
16354;SDS011;8287;51.644;8.494;2023-03-01T05:44:37;11.32;;;7.30;;
16354;SDS011;8287;51.644;8.494;2023-03-01T05:47:03;11.60;;;7.15;;
16354;SDS011;8287;51.644;8.494;2023-03-01T05:49:31;10.98;;;7.18;;
16354;SDS011;8287;51.644;8.494;2023-03-01T05:51:59;13.25;;;6.80;;
16354;SDS011;8287;51.644;8.494;2023-03-01T05:54:26;12.85;;;6.22;;
16354;SDS011;8287;51.644;8.494;2023-03-01T05:56:52;14.18;;;6.68;;
16354;SDS011;8287;51.644;8.494;2023-03-01T05:59:19;11.57;;;7.75;;
16354;SDS011;8287;51.644;8.494;2023-03-01T06:01:45;11.10;;;7.80;;
16354;SDS011;8287;51.644;8.494;2023-03-01T06:04:12;9.93;;;6.90;;
16354;SDS011;8287;51.644;8.494;2023-03-01T06:06:38;16.20;;;8.30;;
16354;SDS011;8287;51.644;8.494;2023-03-01T06:09:06;14.95;;;7.90;;
16354;SDS011;8287;51.644;8.494;2023-03-01T06:11:34;14.77;;;9.07;;
16354;SDS011;8287;51.644;8.494;2023-03-01T06:14:01;17.63;;;9.70;;
16354;SDS011;8287;51.644;8.494;2023-03-01T06:16:28;16.98;;;10.50;;
16354;SDS011;8287;51.644;8.494;2023-03-01T06:18:55;19.63;;;11.82;;
16354;SDS011;8287;51.644;8.494;2023-03-01T06:21:21;15.93;;;10.73;;
16354;SDS011;8287;51.644;8.494;2023-03-01T06:23:48;16.13;;;10.23;;
16354;SDS011;8287;51.644;8.494;2023-03-01T06:26:16;15.88;;;10.18;;
16354;SDS011;8287;51.644;8.494;2023-03-01T06:28:42;12.25;;;8.98;;
16354;SDS011;8287;51.644;8.494;2023-03-01T06:31:11;11.20;;;8.55;;
16354;SDS011;8287;51.644;8.494;2023-03-01T06:33:37;16.10;;;9.77;;
16354;SDS011;8287;51.644;8.494;2023-03-01T06:36:04;13.80;;;9.85;;
16354;SDS011;8287;51.644;8.494;2023-03-01T06:38:31;16.55;;;8.50;;
16354;SDS011;8287;51.644;8.494;2023-03-01T06:40:58;18.42;;;8.88;;
16354;SDS011;8287;51.644;8.494;2023-03-01T06:43:26;12.45;;;9.18;;
16354;SDS011;8287;51.644;8.494;2023-03-01T06:45:52;18.30;;;9.68;;
16354;SDS011;8287;51.644;8.494;2023-03-01T06:48:19;15.20;;;9.55;;
16354;SDS011;8287;51.644;8.494;2023-03-01T06:50:45;15.82;;;9.68;;
16354;SDS011;8287;51.644;8.494;2023-03-01T06:53:12;12.98;;;8.45;;
16354;SDS011;8287;51.644;8.494;2023-03-01T06:55:39;19.67;;;8.65;;
16354;SDS011;8287;51.644;8.494;2023-03-01T06:58:05;13.43;;;9.25;;
16354;SDS011;8287;51.644;8.494;2023-03-01T07:00:33;15.52;;;9.48;;
16354;SDS011;8287;51.644;8.494;2023-03-01T07:03:00;17.08;;;8.60;;
16354;SDS011;8287;51.644;8.494;2023-03-01T07:05:28;11.32;;;7.78;;
16354;SDS011;8287;51.644;8.494;2023-03-01T07:07:55;13.30;;;9.10;;
16354;SDS011;8287;51.644;8.494;2023-03-01T07:10:22;13.75;;;8.65;;
16354;SDS011;8287;51.644;8.494;2023-03-01T07:12:48;17.05;;;10.88;;
16354;SDS011;8287;51.644;8.494;2023-03-01T07:15:15;21.17;;;11.75;;
16354;SDS011;8287;51.644;8.494;2023-03-01T07:17:43;16.77;;;10.05;;
16354;SDS011;8287;51.644;8.494;2023-03-01T07:20:12;18.95;;;9.98;;
16354;SDS011;8287;51.644;8.494;2023-03-01T07:22:39;13.15;;;8.50;;
16354;SDS011;8287;51.644;8.494;2023-03-01T07:25:07;15.57;;;8.82;;
16354;SDS011;8287;51.644;8.494;2023-03-01T07:27:34;11.27;;;6.60;;
16354;SDS011;8287;51.644;8.494;2023-03-01T07:30:01;12.55;;;7.30;;
16354;SDS011;8287;51.644;8.494;2023-03-01T07:32:28;10.48;;;7.05;;
16354;SDS011;8287;51.644;8.494;2023-03-01T07:34:56;8.98;;;6.63;;
16354;SDS011;8287;51.644;8.494;2023-03-01T07:37:23;11.55;;;7.32;;
16354;SDS011;8287;51.644;8.494;2023-03-01T07:39:49;13.38;;;8.18;;
16354;SDS011;8287;51.644;8.494;2023-03-01T07:42:16;14.05;;;7.75;;
16354;SDS011;8287;51.644;8.494;2023-03-01T07:44:43;13.75;;;8.13;;
16354;SDS011;8287;51.644;8.494;2023-03-01T07:47:09;17.30;;;9.48;;
16354;SDS011;8287;51.644;8.494;2023-03-01T07:49:36;16.00;;;9.07;;
16354;SDS011;8287;51.644;8.494;2023-03-01T07:52:04;17.85;;;10.18;;
16354;SDS011;8287;51.644;8.494;2023-03-01T07:54:31;18.63;;;10.43;;
16354;SDS011;8287;51.644;8.494;2023-03-01T07:56:57;21.00;;;10.30;;
16354;SDS011;8287;51.644;8.494;2023-03-01T07:59:24;22.15;;;11.82;;
16354;SDS011;8287;51.644;8.494;2023-03-01T08:01:54;26.33;;;14.43;;
16354;SDS011;8287;51.644;8.494;2023-03-01T08:04:20;19.30;;;11.70;;
16354;SDS011;8287;51.644;8.494;2023-03-01T08:06:48;13.75;;;8.75;;
16354;SDS011;8287;51.644;8.494;2023-03-01T08:09:16;12.80;;;7.32;;
16354;SDS011;8287;51.644;8.494;2023-03-01T08:11:42;10.18;;;6.30;;
16354;SDS011;8287;51.644;8.494;2023-03-01T08:14:09;10.18;;;6.50;;
16354;SDS011;8287;51.644;8.494;2023-03-01T08:16:36;11.32;;;6.50;;
16354;SDS011;8287;51.644;8.494;2023-03-01T08:19:03;9.65;;;5.72;;
16354;SDS011;8287;51.644;8.494;2023-03-01T08:21:30;8.95;;;5.95;;
16354;SDS011;8287;51.644;8.494;2023-03-01T08:23:59;11.68;;;7.10;;
16354;SDS011;8287;51.644;8.494;2023-03-01T08:26:27;5.93;;;5.10;;
16354;SDS011;8287;51.644;8.494;2023-03-01T08:28:54;9.45;;;6.25;;
16354;SDS011;8287;51.644;8.494;2023-03-01T08:31:22;8.35;;;5.60;;
16354;SDS011;8287;51.644;8.494;2023-03-01T08:33:50;12.65;;;5.78;;
16354;SDS011;8287;51.644;8.494;2023-03-01T08:36:21;10.30;;;6.93;;
16354;SDS011;8287;51.644;8.494;2023-03-01T08:38:47;16.10;;;8.77;;
16354;SDS011;8287;51.644;8.494;2023-03-01T08:41:14;14.55;;;8.38;;
16354;SDS011;8287;51.644;8.494;2023-03-01T08:43:42;18.48;;;10.02;;
16354;SDS011;8287;51.644;8.494;2023-03-01T08:46:09;12.30;;;7.75;;
16354;SDS011;8287;51.644;8.494;2023-03-01T08:48:36;13.35;;;7.95;;
16354;SDS011;8287;51.644;8.494;2023-03-01T08:51:07;11.85;;;6.95;;
16354;SDS011;8287;51.644;8.494;2023-03-01T08:53:34;10.32;;;5.13;;
16354;SDS011;8287;51.644;8.494;2023-03-01T08:56:01;6.78;;;5.15;;
16354;SDS011;8287;51.644;8.494;2023-03-01T08:58:28;7.35;;;5.32;;
16354;SDS011;8287;51.644;8.494;2023-03-01T09:00:57;11.60;;;5.30;;
16354;SDS011;8287;51.644;8.494;2023-03-01T09:03:24;11.95;;;7.60;;
16354;SDS011;8287;51.644;8.494;2023-03-01T09:05:51;13.45;;;8.00;;
16354;SDS011;8287;51.644;8.494;2023-03-01T09:08:17;8.50;;;6.32;;
16354;SDS011;8287;51.644;8.494;2023-03-01T09:10:45;12.90;;;7.00;;
16354;SDS011;8287;51.644;8.494;2023-03-01T09:13:12;11.60;;;7.93;;
16354;SDS011;8287;51.644;8.494;2023-03-01T09:15:38;12.60;;;8.30;;
16354;SDS011;8287;51.644;8.494;2023-03-01T09:18:06;13.48;;;7.60;;
16354;SDS011;8287;51.644;8.494;2023-03-01T09:20:50;8.55;;;6.35;;
16354;SDS011;8287;51.644;8.494;2023-03-01T09:23:20;10.35;;;5.93;;
16354;SDS011;8287;51.644;8.494;2023-03-01T09:25:47;8.57;;;6.57;;
16354;SDS011;8287;51.644;8.494;2023-03-01T09:28:14;13.70;;;6.50;;
16354;SDS011;8287;51.644;8.494;2023-03-01T09:30:40;11.00;;;5.30;;
16354;SDS011;8287;51.644;8.494;2023-03-01T09:33:08;10.10;;;7.45;;
16354;SDS011;8287;51.644;8.494;2023-03-01T09:35:39;7.35;;;5.88;;
16354;SDS011;8287;51.644;8.494;2023-03-01T09:38:11;8.68;;;5.88;;
16354;SDS011;8287;51.644;8.494;2023-03-01T09:40:41;8.43;;;6.28;;
16354;SDS011;8287;51.644;8.494;2023-03-01T09:43:14;7.10;;;5.40;;
16354;SDS011;8287;51.644;8.494;2023-03-01T09:45:47;11.02;;;6.72;;
16354;SDS011;8287;51.644;8.494;2023-03-01T09:48:19;7.75;;;5.53;;
16354;SDS011;8287;51.644;8.494;2023-03-01T09:50:48;9.30;;;6.90;;
16354;SDS011;8287;51.644;8.494;2023-03-01T09:53:17;8.68;;;5.40;;
16354;SDS011;8287;51.644;8.494;2023-03-01T09:55:48;10.23;;;5.30;;
16354;SDS011;8287;51.644;8.494;2023-03-01T09:58:29;9.00;;;5.97;;
16354;SDS011;8287;51.644;8.494;2023-03-01T10:01:02;9.07;;;5.70;;
16354;SDS011;8287;51.644;8.494;2023-03-01T10:03:39;7.25;;;5.70;;
16354;SDS011;8287;51.644;8.494;2023-03-01T10:06:11;11.23;;;6.68;;
16354;SDS011;8287;51.644;8.494;2023-03-01T10:08:46;8.00;;;5.85;;
16354;SDS011;8287;51.644;8.494;2023-03-01T10:11:19;8.90;;;5.78;;
16354;SDS011;8287;51.644;8.494;2023-03-01T10:13:50;7.18;;;5.82;;
16354;SDS011;8287;51.644;8.494;2023-03-01T10:16:22;8.40;;;5.55;;
16354;SDS011;8287;51.644;8.494;2023-03-01T10:18:58;8.65;;;5.60;;
16354;SDS011;8287;51.644;8.494;2023-03-01T10:21:28;7.38;;;5.25;;
16354;SDS011;8287;51.644;8.494;2023-03-01T10:23:57;6.70;;;5.55;;
16354;SDS011;8287;51.644;8.494;2023-03-01T10:26:47;6.57;;;5.00;;
16354;SDS011;8287;51.644;8.494;2023-03-01T10:29:19;7.25;;;5.10;;
16354;SDS011;8287;51.644;8.494;2023-03-01T10:31:52;9.15;;;4.85;;
16354;SDS011;8287;51.644;8.494;2023-03-01T10:34:22;9.05;;;5.40;;
16354;SDS011;8287;51.644;8.494;2023-03-01T10:36:55;5.35;;;4.85;;
16354;SDS011;8287;51.644;8.494;2023-03-01T10:39:24;6.78;;;4.50;;
16354;SDS011;8287;51.644;8.494;2023-03-01T10:41:54;6.65;;;4.40;;
16354;SDS011;8287;51.644;8.494;2023-03-01T10:44:35;6.97;;;4.47;;
16354;SDS011;8287;51.644;8.494;2023-03-01T10:47:04;7.35;;;5.07;;
16354;SDS011;8287;51.644;8.494;2023-03-01T10:49:32;6.70;;;5.07;;
16354;SDS011;8287;51.644;8.494;2023-03-01T10:52:11;6.97;;;4.53;;
16354;SDS011;8287;51.644;8.494;2023-03-01T10:54:50;8.07;;;5.20;;
16354;SDS011;8287;51.644;8.494;2023-03-01T10:57:28;8.13;;;5.13;;
16354;SDS011;8287;51.644;8.494;2023-03-01T11:00:00;5.88;;;4.35;;
16354;SDS011;8287;51.644;8.494;2023-03-01T11:02:47;10.88;;;5.25;;
16354;SDS011;8287;51.644;8.494;2023-03-01T11:05:18;6.13;;;4.32;;
16354;SDS011;8287;51.644;8.494;2023-03-01T11:07:49;9.27;;;5.68;;
16354;SDS011;8287;51.644;8.494;2023-03-01T11:10:17;9.48;;;4.85;;
16354;SDS011;8287;51.644;8.494;2023-03-01T11:12:46;7.82;;;5.25;;
16354;SDS011;8287;51.644;8.494;2023-03-01T11:15:20;9.73;;;6.00;;
16354;SDS011;8287;51.644;8.494;2023-03-01T11:17:48;8.93;;;4.80;;
16354;SDS011;8287;51.644;8.494;2023-03-01T11:20:19;8.10;;;5.60;;
16354;SDS011;8287;51.644;8.494;2023-03-01T11:22:52;6.72;;;4.53;;
16354;SDS011;8287;51.644;8.494;2023-03-01T11:25:23;9.45;;;4.70;;
16354;SDS011;8287;51.644;8.494;2023-03-01T11:27:52;8.95;;;4.97;;
16354;SDS011;8287;51.644;8.494;2023-03-01T11:30:20;6.57;;;5.20;;
16354;SDS011;8287;51.644;8.494;2023-03-01T11:33:05;7.13;;;4.82;;
16354;SDS011;8287;51.644;8.494;2023-03-01T11:35:44;10.57;;;5.97;;
16354;SDS011;8287;51.644;8.494;2023-03-01T11:38:18;13.13;;;6.78;;
16354;SDS011;8287;51.644;8.494;2023-03-01T11:40:49;7.05;;;5.40;;
16354;SDS011;8287;51.644;8.494;2023-03-01T11:43:26;8.82;;;5.40;;
16354;SDS011;8287;51.644;8.494;2023-03-01T11:48:58;5.80;;;4.43;;
16354;SDS011;8287;51.644;8.494;2023-03-01T11:51:41;8.43;;;5.95;;
16354;SDS011;8287;51.644;8.494;2023-03-01T11:54:17;8.10;;;4.43;;
16354;SDS011;8287;51.644;8.494;2023-03-01T11:56:57;6.45;;;5.25;;
16354;SDS011;8287;51.644;8.494;2023-03-01T12:02:44;7.55;;;4.68;;
16354;SDS011;8287;51.644;8.494;2023-03-01T12:05:36;8.00;;;5.00;;
16354;SDS011;8287;51.644;8.494;2023-03-01T12:08:22;8.98;;;5.03;;
16354;SDS011;8287;51.644;8.494;2023-03-01T12:10:57;8.02;;;4.85;;
16354;SDS011;8287;51.644;8.494;2023-03-01T12:13:38;8.52;;;4.88;;
16354;SDS011;8287;51.644;8.494;2023-03-01T12:16:24;7.50;;;5.50;;
16354;SDS011;8287;51.644;8.494;2023-03-01T12:19:12;6.85;;;5.30;;
16354;SDS011;8287;51.644;8.494;2023-03-01T12:21:53;5.65;;;4.60;;
16354;SDS011;8287;51.644;8.494;2023-03-01T12:24:39;9.85;;;4.22;;
16354;SDS011;8287;51.644;8.494;2023-03-01T12:27:22;7.10;;;4.05;;
16354;SDS011;8287;51.644;8.494;2023-03-01T12:30:15;9.60;;;4.70;;
16354;SDS011;8287;51.644;8.494;2023-03-01T12:32:51;7.13;;;4.95;;
16354;SDS011;8287;51.644;8.494;2023-03-01T12:35:34;6.03;;;4.55;;
16354;SDS011;8287;51.644;8.494;2023-03-01T12:38:08;6.78;;;4.22;;
16354;SDS011;8287;51.644;8.494;2023-03-01T12:40:59;6.55;;;4.80;;
16354;SDS011;8287;51.644;8.494;2023-03-01T12:43:41;6.35;;;4.75;;
16354;SDS011;8287;51.644;8.494;2023-03-01T12:46:25;5.82;;;4.70;;
16354;SDS011;8287;51.644;8.494;2023-03-01T12:49:03;8.00;;;5.25;;
16354;SDS011;8287;51.644;8.494;2023-03-01T12:51:36;10.38;;;4.13;;
16354;SDS011;8287;51.644;8.494;2023-03-01T12:54:05;5.80;;;4.93;;
16354;SDS011;8287;51.644;8.494;2023-03-01T12:56:39;7.60;;;4.57;;
16354;SDS011;8287;51.644;8.494;2023-03-01T12:59:09;7.28;;;4.63;;
16354;SDS011;8287;51.644;8.494;2023-03-01T13:01:44;9.65;;;5.65;;
16354;SDS011;8287;51.644;8.494;2023-03-01T13:04:21;7.53;;;4.63;;
16354;SDS011;8287;51.644;8.494;2023-03-01T13:07:09;5.40;;;4.10;;
16354;SDS011;8287;51.644;8.494;2023-03-01T13:09:44;5.07;;;3.92;;
16354;SDS011;8287;51.644;8.494;2023-03-01T13:15:29;6.03;;;4.50;;
16354;SDS011;8287;51.644;8.494;2023-03-01T13:17:58;6.80;;;4.70;;
16354;SDS011;8287;51.644;8.494;2023-03-01T13:20:28;9.38;;;5.50;;
16354;SDS011;8287;51.644;8.494;2023-03-01T13:23:05;7.82;;;5.30;;
16354;SDS011;8287;51.644;8.494;2023-03-01T13:25:42;10.52;;;6.13;;
16354;SDS011;8287;51.644;8.494;2023-03-01T13:28:39;7.93;;;4.80;;
16354;SDS011;8287;51.644;8.494;2023-03-01T13:34:43;5.03;;;4.07;;
16354;SDS011;8287;51.644;8.494;2023-03-01T13:37:21;5.78;;;4.32;;
16354;SDS011;8287;51.644;8.494;2023-03-01T13:39:51;6.82;;;4.13;;
16354;SDS011;8287;51.644;8.494;2023-03-01T13:42:30;6.00;;;3.70;;
16354;SDS011;8287;51.644;8.494;2023-03-01T13:45:01;4.78;;;4.28;;
16354;SDS011;8287;51.644;8.494;2023-03-01T13:47:29;6.28;;;4.72;;
16354;SDS011;8287;51.644;8.494;2023-03-01T13:49:59;6.40;;;4.40;;
16354;SDS011;8287;51.644;8.494;2023-03-01T13:52:38;5.97;;;4.65;;
16354;SDS011;8287;51.644;8.494;2023-03-01T13:55:14;8.07;;;4.80;;
16354;SDS011;8287;51.644;8.494;2023-03-01T13:57:44;7.75;;;4.90;;
16354;SDS011;8287;51.644;8.494;2023-03-01T14:00:28;4.45;;;4.00;;
16354;SDS011;8287;51.644;8.494;2023-03-01T14:03:00;5.18;;;4.18;;
16354;SDS011;8287;51.644;8.494;2023-03-01T14:05:30;9.32;;;4.22;;
16354;SDS011;8287;51.644;8.494;2023-03-01T14:07:56;5.93;;;3.72;;
16354;SDS011;8287;51.644;8.494;2023-03-01T14:10:24;5.25;;;3.90;;
16354;SDS011;8287;51.644;8.494;2023-03-01T14:12:58;5.28;;;4.68;;
16354;SDS011;8287;51.644;8.494;2023-03-01T14:15:36;5.28;;;4.22;;
16354;SDS011;8287;51.644;8.494;2023-03-01T14:18:08;6.75;;;4.15;;
16354;SDS011;8287;51.644;8.494;2023-03-01T14:20:41;8.10;;;4.43;;
16354;SDS011;8287;51.644;8.494;2023-03-01T14:23:11;8.30;;;4.18;;
16354;SDS011;8287;51.644;8.494;2023-03-01T14:25:45;5.80;;;4.30;;
16354;SDS011;8287;51.644;8.494;2023-03-01T14:28:14;6.80;;;4.18;;
16354;SDS011;8287;51.644;8.494;2023-03-01T14:30:45;6.35;;;4.80;;
16354;SDS011;8287;51.644;8.494;2023-03-01T14:33:18;6.13;;;4.63;;
16354;SDS011;8287;51.644;8.494;2023-03-01T14:35:58;10.20;;;5.95;;
16354;SDS011;8287;51.644;8.494;2023-03-01T14:38:32;9.10;;;4.32;;
16354;SDS011;8287;51.644;8.494;2023-03-01T14:41:02;4.85;;;3.78;;
16354;SDS011;8287;51.644;8.494;2023-03-01T14:43:31;6.22;;;3.95;;
16354;SDS011;8287;51.644;8.494;2023-03-01T14:46:00;5.47;;;3.78;;
16354;SDS011;8287;51.644;8.494;2023-03-01T14:48:27;4.53;;;4.03;;
16354;SDS011;8287;51.644;8.494;2023-03-01T14:50:56;5.60;;;3.65;;
16354;SDS011;8287;51.644;8.494;2023-03-01T14:53:24;4.13;;;3.63;;
16354;SDS011;8287;51.644;8.494;2023-03-01T14:55:53;7.65;;;4.45;;
16354;SDS011;8287;51.644;8.494;2023-03-01T14:58:22;6.32;;;4.18;;
16354;SDS011;8287;51.644;8.494;2023-03-01T15:00:51;5.53;;;4.15;;
16354;SDS011;8287;51.644;8.494;2023-03-01T15:03:23;4.75;;;3.85;;
16354;SDS011;8287;51.644;8.494;2023-03-01T15:05:53;4.38;;;3.35;;
16354;SDS011;8287;51.644;8.494;2023-03-01T15:08:22;6.32;;;4.28;;
16354;SDS011;8287;51.644;8.494;2023-03-01T15:10:58;6.32;;;4.22;;
16354;SDS011;8287;51.644;8.494;2023-03-01T15:13:29;4.78;;;3.63;;
16354;SDS011;8287;51.644;8.494;2023-03-01T15:16:07;4.35;;;3.58;;
16354;SDS011;8287;51.644;8.494;2023-03-01T15:18:42;5.15;;;3.58;;
16354;SDS011;8287;51.644;8.494;2023-03-01T15:21:15;5.60;;;4.57;;
16354;SDS011;8287;51.644;8.494;2023-03-01T15:23:47;5.60;;;3.85;;
16354;SDS011;8287;51.644;8.494;2023-03-01T15:26:21;4.93;;;3.83;;